createdAt,value
2022-09-07T00:00:11.554Z,84.00
2022-09-07T00:01:01.771Z,82.85
2022-09-07T00:01:33.132Z,83.52
2022-09-07T00:02:04.550Z,84.25
2022-09-07T00:02:35.940Z,83.71
2022-09-07T00:03:07.867Z,84.50
2022-09-07T00:03:39.317Z,84.26
2022-09-07T00:04:10.765Z,84.57
2022-09-07T00:04:42.262Z,84.54
2022-09-07T00:05:13.691Z,84.14
2022-09-07T00:05:47.046Z,84.44
2022-09-07T00:06:18.497Z,84.55
2022-09-07T00:06:49.870Z,84.38
2022-09-07T00:07:21.234Z,84.23
2022-09-07T00:07:52.581Z,84.08
2022-09-07T00:08:26.826Z,84.15
2022-09-07T00:08:58.480Z,83.89
2022-09-07T00:09:30.007Z,84.57
2022-09-07T00:10:20.230Z,83.49
2022-09-07T00:11:00.240Z,84.01
2022-09-07T00:11:31.616Z,84.89
2022-09-07T00:12:03.241Z,84.39
2022-09-07T00:12:34.603Z,84.72
2022-09-07T00:13:07.102Z,84.41
2022-09-07T00:13:40.293Z,84.75
2022-09-07T00:14:11.723Z,85.19
2022-09-07T00:14:43.122Z,84.88
2022-09-07T00:15:14.744Z,84.50
2022-09-07T00:15:46.736Z,85.09
2022-09-07T00:16:25.130Z,85.23
2022-09-07T00:16:56.739Z,84.76
2022-09-07T00:17:46.779Z,85.20
2022-09-07T00:18:18.560Z,84.87
2022-09-07T00:18:50.260Z,85.08
2022-09-07T00:19:22.607Z,85.26
2022-09-07T00:19:55.273Z,85.13
2022-09-07T00:20:26.755Z,85.24
2022-09-07T00:21:03.876Z,85.16
2022-09-07T00:21:36.331Z,85.20
2022-09-07T00:22:07.861Z,85.36
2022-09-07T00:22:39.437Z,85.02
2022-09-07T00:23:10.928Z,85.30
2022-09-07T00:23:42.659Z,85.71
2022-09-07T00:25:03.047Z,84.95
2022-09-07T00:25:39.230Z,85.57
2022-09-07T00:26:15.994Z,85.06
2022-09-07T00:26:47.344Z,85.03
2022-09-07T00:27:18.891Z,85.77
2022-09-07T00:28:09.074Z,86.22
2022-09-07T00:28:40.587Z,86.17
2022-09-07T00:29:30.401Z,86.17
2022-09-07T00:30:01.761Z,85.62
2022-09-07T00:30:34.139Z,86.09
2022-09-07T00:31:10.199Z,85.99
2022-09-07T00:31:41.820Z,85.36
2022-09-07T00:32:13.205Z,85.69
2022-09-07T00:32:44.592Z,85.47
2022-09-07T00:33:16.061Z,86.04
2022-09-07T00:33:49.090Z,86.48
2022-09-07T00:34:20.474Z,86.57
2022-09-07T00:34:51.846Z,86.05
2022-09-07T00:35:23.240Z,85.87
2022-09-07T00:35:54.743Z,85.79
2022-09-07T00:36:26.681Z,86.68
2022-09-07T00:36:58.192Z,86.46
2022-09-07T00:37:29.589Z,86.20
2022-09-07T00:38:01.214Z,86.48
2022-09-07T00:38:32.654Z,86.59
2022-09-07T00:39:54.671Z,86.83
2022-09-07T00:40:26.184Z,86.34
2022-09-07T00:40:57.596Z,86.66
2022-09-07T00:41:28.976Z,86.43
2022-09-07T00:42:01.316Z,86.75
2022-09-07T00:42:51.224Z,86.47
2022-09-07T00:43:40.652Z,86.34
2022-09-07T00:44:42.960Z,85.84
2022-09-07T00:45:20.847Z,85.89
2022-09-07T00:45:52.233Z,85.58
2022-09-07T00:46:29.379Z,86.22
2022-09-07T00:47:01.062Z,86.26
2022-09-07T00:48:55.098Z,85.83
2022-09-07T00:49:26.800Z,85.75
2022-09-07T00:50:07.761Z,86.06
2022-09-07T00:50:44.303Z,86.01
2022-09-07T00:51:21.577Z,85.71
2022-09-07T00:51:59.338Z,86.19
2022-09-07T00:52:32.358Z,85.73
2022-09-07T00:53:29.067Z,86.03
2022-09-07T00:54:24.359Z,85.33
2022-09-07T00:55:01.836Z,85.99
2022-09-07T00:55:36.509Z,85.28
2022-09-07T00:56:09.063Z,85.14
2022-09-07T00:56:59.747Z,85.25
2022-09-07T00:57:32.033Z,85.19
2022-09-07T00:58:05.016Z,85.65
2022-09-07T00:58:39.221Z,85.46
2022-09-07T00:59:14.072Z,85.43
2022-09-07T00:59:50.232Z,85.19
2022-09-07T01:01:11.941Z,84.94
2022-09-07T01:01:45.036Z,85.08
2022-09-07T01:02:18.066Z,84.59
2022-09-07T01:02:51.894Z,84.83
2022-09-07T01:03:27.715Z,84.77
2022-09-07T01:04:00.909Z,84.79
2022-09-07T01:04:33.088Z,85.20
2022-09-07T01:05:34.187Z,85.06
2022-09-07T01:06:16.473Z,85.41
2022-09-07T01:06:49.044Z,85.14
2022-09-07T01:07:39.066Z,84.83
2022-09-07T01:08:13.071Z,85.05
2022-09-07T01:08:46.298Z,84.92
2022-09-07T01:09:22.132Z,85.29
2022-09-07T01:09:55.644Z,84.87
2022-09-07T01:10:33.404Z,85.06
2022-09-07T01:11:05.087Z,85.00
2022-09-07T01:11:36.885Z,84.77
2022-09-07T01:12:08.724Z,84.43
2022-09-07T01:12:40.116Z,84.61
2022-09-07T01:13:11.516Z,83.97
2022-09-07T01:14:02.277Z,83.86
2022-09-07T01:14:43.853Z,83.78
2022-09-07T01:15:15.213Z,83.89
2022-09-07T01:16:04.670Z,83.09
2022-09-07T01:16:57.230Z,83.21
2022-09-07T01:17:56.227Z,83.35
2022-09-07T01:18:54.059Z,83.31
2022-09-07T01:20:04.116Z,83.62
2022-09-07T01:20:51.877Z,83.49
2022-09-07T01:21:32.316Z,83.75
2022-09-07T01:22:24.352Z,84.02
2022-09-07T01:23:07.995Z,83.56
2022-09-07T01:25:42.775Z,83.77
2022-09-07T01:26:45.020Z,83.77
2022-09-07T01:27:35.417Z,82.66
2022-09-07T01:28:23.279Z,82.42
2022-09-07T01:29:03.855Z,83.22
2022-09-07T01:29:39.244Z,82.93
2022-09-07T01:30:17.734Z,83.19
2022-09-07T01:31:15.773Z,83.58
2022-09-07T01:31:53.087Z,83.35
2022-09-07T01:33:01.847Z,83.81
2022-09-07T01:34:10.906Z,83.15
2022-09-07T01:34:46.184Z,83.60
2022-09-07T01:35:38.891Z,83.87
2022-09-07T01:36:12.825Z,83.96
2022-09-07T01:37:18.463Z,83.09
2022-09-07T01:38:20.199Z,82.95
2022-09-07T01:38:57.148Z,83.43
2022-09-07T01:39:38.957Z,83.18
2022-09-07T01:40:19.213Z,83.04
2022-09-07T01:42:10.176Z,83.02
2022-09-07T01:42:54.419Z,83.17
2022-09-07T01:43:36.542Z,83.66
2022-09-07T01:44:16.177Z,83.46
2022-09-07T01:45:34.320Z,84.11
2022-09-07T01:47:13.102Z,83.83
2022-09-07T01:47:53.228Z,84.10
2022-09-07T01:48:26.367Z,83.99
2022-09-07T01:49:15.645Z,84.05
2022-09-07T01:50:01.990Z,83.78
2022-09-07T01:50:40.800Z,83.69
2022-09-07T01:51:12.964Z,84.28
2022-09-07T01:51:48.371Z,83.92
2022-09-07T01:52:31.458Z,83.98
2022-09-07T01:53:41.760Z,83.88
2022-09-07T01:54:30.368Z,83.89
2022-09-07T01:55:22.355Z,83.89
2022-09-07T01:56:01.245Z,84.41
2022-09-07T01:56:44.399Z,83.88
2022-09-07T01:57:30.847Z,83.82
2022-09-07T01:58:13.456Z,83.92
2022-09-07T01:58:56.625Z,84.37
2022-09-07T01:59:44.180Z,84.22
2022-09-07T02:00:19.007Z,84.05
2022-09-07T02:00:56.484Z,83.88
2022-09-07T02:01:51.931Z,83.58
2022-09-07T02:02:30.961Z,83.82
2022-09-07T02:03:18.287Z,84.11
2022-09-07T02:03:57.814Z,84.03
2022-09-07T02:04:38.823Z,84.20
2022-09-07T02:05:16.779Z,83.85
2022-09-07T02:05:54.032Z,84.18
2022-09-07T02:06:36.390Z,84.52
2022-09-07T02:08:00.897Z,83.84
2022-09-07T02:09:39.060Z,84.86
2022-09-07T02:10:16.181Z,84.87
2022-09-07T02:10:56.207Z,85.14
2022-09-07T02:11:37.922Z,85.12
2022-09-07T02:12:18.657Z,84.99
2022-09-07T02:13:01.941Z,85.08
2022-09-07T02:13:35.573Z,84.78
2022-09-07T02:14:14.571Z,84.67
2022-09-07T02:15:10.070Z,84.56
2022-09-07T02:16:26.991Z,84.39
2022-09-07T02:17:17.014Z,83.91
2022-09-07T02:17:54.270Z,84.01
2022-09-07T02:18:30.611Z,84.18
2022-09-07T02:19:10.630Z,84.10
2022-09-07T02:20:04.732Z,84.24
2022-09-07T02:20:41.845Z,84.10
2022-09-07T02:21:17.522Z,84.27
2022-09-07T02:21:54.262Z,84.80
2022-09-07T02:22:30.998Z,84.02
2022-09-07T02:23:06.701Z,84.45
2022-09-07T02:23:50.298Z,84.17
2022-09-07T02:24:27.570Z,83.84
2022-09-07T02:25:03.312Z,84.34
2022-09-07T02:25:45.844Z,84.30
2022-09-07T02:26:21.666Z,84.50
2022-09-07T02:26:54.477Z,84.26
2022-09-07T02:27:55.166Z,84.31
2022-09-07T02:28:32.589Z,84.26
2022-09-07T02:29:04.369Z,84.46
2022-09-07T02:29:35.712Z,84.04
2022-09-07T02:30:07.718Z,84.25
2022-09-07T02:30:39.547Z,84.40
2022-09-07T02:31:11.362Z,84.51
2022-09-07T02:31:42.830Z,84.22
2022-09-07T02:32:14.185Z,84.29
2022-09-07T02:32:45.964Z,83.80
2022-09-07T02:33:17.787Z,84.25
2022-09-07T02:33:49.763Z,84.06
2022-09-07T02:34:21.231Z,83.79
2022-09-07T02:34:52.769Z,84.02
2022-09-07T02:35:24.152Z,83.19
2022-09-07T02:35:56.571Z,83.73
2022-09-07T02:36:33.637Z,83.28
2022-09-07T02:37:09.245Z,84.22
2022-09-07T02:37:43.042Z,83.96
2022-09-07T02:38:33.117Z,83.81
2022-09-07T02:39:04.493Z,83.82
2022-09-07T02:39:35.956Z,83.58
2022-09-07T02:40:08.737Z,84.00
2022-09-07T02:40:40.288Z,84.38
2022-09-07T02:41:30.366Z,83.90
2022-09-07T02:42:01.883Z,84.40
2022-09-07T02:42:34.829Z,84.07
2022-09-07T02:43:09.050Z,84.71
2022-09-07T02:43:40.438Z,84.11
2022-09-07T02:44:26.324Z,84.03
2022-09-07T02:44:58.211Z,84.03
2022-09-07T02:45:46.787Z,84.07
2022-09-07T02:46:34.033Z,83.79
2022-09-07T02:47:25.892Z,83.77
2022-09-07T02:48:02.946Z,83.70
2022-09-07T02:50:06.157Z,84.12
2022-09-07T02:51:05.451Z,83.72
2022-09-07T02:51:44.733Z,83.99
2022-09-07T02:52:40.670Z,84.01
2022-09-07T02:53:33.399Z,83.59
2022-09-07T02:54:28.307Z,83.83
2022-09-07T02:55:20.109Z,83.75
2022-09-07T02:56:06.129Z,83.93
2022-09-07T02:56:48.976Z,84.28
2022-09-07T02:57:46.887Z,84.02
2022-09-07T02:58:34.195Z,84.27
2022-09-07T02:59:37.015Z,83.85
2022-09-07T03:00:12.964Z,83.60
2022-09-07T03:01:14.691Z,83.35
2022-09-07T03:02:27.456Z,83.81
2022-09-07T03:03:17.600Z,84.57
2022-09-07T03:04:12.172Z,84.02
2022-09-07T03:04:54.908Z,84.26
2022-09-07T03:05:54.449Z,84.40
2022-09-07T03:06:50.521Z,84.54
2022-09-07T03:07:54.807Z,84.21
2022-09-07T03:08:35.031Z,84.28
2022-09-07T03:10:06.722Z,84.52
2022-09-07T03:10:40.324Z,84.58
2022-09-07T03:11:13.020Z,84.43
2022-09-07T03:11:44.771Z,84.24
2022-09-07T03:12:16.974Z,84.31
2022-09-07T03:12:50.513Z,84.04
2022-09-07T03:13:24.737Z,84.18
2022-09-07T03:14:19.372Z,84.38
2022-09-07T03:14:50.708Z,84.21
2022-09-07T03:15:25.287Z,84.19
2022-09-07T03:15:57.595Z,84.02
2022-09-07T03:16:29.014Z,84.69
2022-09-07T03:17:18.842Z,84.68
2022-09-07T03:17:50.516Z,84.75
2022-09-07T03:18:23.132Z,84.35
2022-09-07T03:18:54.458Z,85.03
2022-09-07T03:19:26.526Z,85.11
2022-09-07T03:19:57.900Z,84.83
2022-09-07T03:20:47.976Z,85.18
2022-09-07T03:21:38.084Z,84.53
2022-09-07T03:22:09.460Z,85.31
2022-09-07T03:22:40.831Z,85.51
2022-09-07T03:23:12.646Z,85.34
2022-09-07T03:24:34.101Z,85.22
2022-09-07T03:25:06.312Z,85.50
2022-09-07T03:26:46.268Z,85.03
2022-09-07T03:27:17.883Z,84.85
2022-09-07T03:27:49.228Z,84.46
2022-09-07T03:28:20.573Z,84.48
2022-09-07T03:28:52.017Z,84.67
2022-09-07T03:30:13.210Z,84.36
2022-09-07T03:30:47.061Z,84.84
2022-09-07T03:31:37.021Z,84.41
2022-09-07T03:32:08.361Z,84.47
2022-09-07T03:32:40.085Z,84.64
2022-09-07T03:33:11.612Z,84.84
2022-09-07T03:33:43.065Z,84.32
2022-09-07T03:34:14.562Z,84.70
2022-09-07T03:34:48.351Z,84.53
2022-09-07T03:35:19.752Z,85.09
2022-09-07T03:36:00.121Z,84.83
2022-09-07T03:36:32.318Z,84.13
2022-09-07T03:37:03.745Z,84.80
2022-09-07T03:37:36.779Z,84.43
2022-09-07T03:38:08.191Z,84.89
2022-09-07T03:38:39.601Z,84.58
2022-09-07T03:39:12.355Z,84.15
2022-09-07T03:40:59.371Z,84.89
2022-09-07T03:41:30.765Z,84.42
2022-09-07T03:42:02.376Z,84.56
2022-09-07T03:42:33.755Z,84.66
2022-09-07T03:43:05.116Z,84.52
2022-09-07T03:43:36.490Z,84.24
2022-09-07T03:44:26.425Z,84.91
2022-09-07T03:45:46.408Z,84.09
2022-09-07T03:46:19.722Z,84.34
2022-09-07T03:46:51.377Z,83.87
2022-09-07T03:47:22.775Z,84.57
2022-09-07T03:47:54.149Z,84.01
2022-09-07T03:48:25.653Z,84.43
2022-09-07T03:49:46.118Z,84.30
2022-09-07T03:50:17.936Z,84.46
2022-09-07T03:51:04.375Z,84.04
2022-09-07T03:51:35.758Z,84.22
2022-09-07T03:52:07.407Z,84.75
2022-09-07T03:52:39.056Z,84.73
2022-09-07T03:53:10.385Z,84.80
2022-09-07T03:53:44.577Z,85.38
2022-09-07T03:54:15.989Z,85.40
2022-09-07T03:54:47.435Z,85.71
2022-09-07T03:55:19.016Z,85.43
2022-09-07T03:56:01.420Z,84.80
2022-09-07T03:56:32.788Z,84.90
2022-09-07T03:57:04.188Z,85.30
2022-09-07T03:57:36.067Z,85.02
2022-09-07T03:58:07.421Z,85.25
2022-09-07T03:58:39.149Z,85.17
2022-09-07T03:59:28.959Z,84.82
2022-09-07T04:00:00.338Z,85.38
2022-09-07T04:02:19.477Z,84.84
2022-09-07T04:02:50.937Z,84.50
2022-09-07T04:03:22.444Z,84.57
2022-09-07T04:04:01.373Z,84.94
2022-09-07T04:04:33.927Z,84.49
2022-09-07T04:05:24.064Z,84.95
2022-09-07T04:05:58.472Z,84.66
2022-09-07T04:06:30.585Z,84.65
2022-09-07T04:07:01.948Z,84.71
2022-09-07T04:07:33.308Z,85.08
2022-09-07T04:08:22.833Z,85.00
2022-09-07T04:08:56.169Z,84.77
2022-09-07T04:09:27.540Z,84.60
2022-09-07T04:10:47.965Z,84.35
2022-09-07T04:11:19.432Z,84.97
2022-09-07T04:11:51.103Z,84.40
2022-09-07T04:12:22.447Z,84.53
2022-09-07T04:12:53.810Z,84.32
2022-09-07T04:13:26.406Z,84.95
2022-09-07T04:13:58.050Z,84.92
2022-09-07T04:14:47.737Z,84.94
2022-09-07T04:15:37.874Z,84.03
2022-09-07T04:16:15.219Z,84.20
2022-09-07T04:16:46.894Z,84.22
2022-09-07T04:17:18.475Z,84.23
2022-09-07T04:17:49.797Z,83.89
2022-09-07T04:18:21.605Z,84.35
2022-09-07T04:18:59.069Z,84.03
2022-09-07T04:19:30.580Z,84.36
2022-09-07T04:20:04.699Z,84.62
2022-09-07T04:20:54.424Z,84.05
2022-09-07T04:21:29.138Z,84.32
2022-09-07T04:22:00.541Z,84.09
2022-09-07T04:22:31.894Z,83.62
2022-09-07T04:23:03.449Z,84.06
2022-09-07T04:23:37.403Z,83.92
2022-09-07T04:24:08.807Z,83.52
2022-09-07T04:24:40.163Z,83.38
2022-09-07T04:25:11.517Z,83.68
2022-09-07T04:25:52.549Z,84.03
2022-09-07T04:26:25.429Z,83.95
2022-09-07T04:26:56.787Z,84.15
2022-09-07T04:27:46.649Z,83.95
2022-09-07T04:28:19.756Z,84.03
2022-09-07T04:28:53.954Z,83.94
2022-09-07T04:29:25.434Z,84.09
2022-09-07T04:29:56.810Z,84.26
2022-09-07T04:30:28.383Z,84.01
2022-09-07T04:31:02.995Z,83.88
2022-09-07T04:31:52.808Z,83.99
2022-09-07T04:32:24.122Z,84.10
2022-09-07T04:32:55.468Z,83.80
2022-09-07T04:33:26.989Z,83.74
2022-09-07T04:33:58.416Z,83.76
2022-09-07T04:34:48.750Z,83.95
2022-09-07T04:35:20.088Z,84.21
2022-09-07T04:35:51.669Z,83.88
2022-09-07T04:36:42.131Z,84.13
2022-09-07T04:37:13.483Z,83.77
2022-09-07T04:37:45.183Z,83.84
2022-09-07T04:38:16.606Z,83.73
2022-09-07T04:38:57.414Z,84.24
2022-09-07T04:39:28.961Z,83.65
2022-09-07T04:40:00.434Z,84.01
2022-09-07T04:40:32.349Z,84.09
2022-09-07T04:41:15.384Z,83.81
2022-09-07T04:41:46.722Z,84.02
2022-09-07T04:42:18.589Z,83.63
2022-09-07T04:42:50.136Z,84.03
2022-09-07T04:43:21.511Z,84.17
2022-09-07T04:44:16.951Z,84.09
2022-09-07T04:44:51.427Z,83.56
2022-09-07T04:45:22.768Z,83.86
2022-09-07T04:45:54.181Z,84.11
2022-09-07T04:46:30.482Z,83.87
2022-09-07T04:47:01.977Z,83.92
2022-09-07T04:48:05.863Z,84.11
2022-09-07T04:48:37.239Z,83.88
2022-09-07T04:49:10.653Z,83.76
2022-09-07T04:49:42.019Z,84.18
2022-09-07T04:50:13.376Z,83.99
2022-09-07T04:50:44.708Z,84.00
2022-09-07T04:51:16.948Z,84.36
2022-09-07T04:51:48.391Z,84.03
2022-09-07T04:52:19.849Z,84.02
2022-09-07T04:52:51.241Z,84.25
2022-09-07T04:53:22.609Z,84.22
2022-09-07T04:53:55.468Z,83.99
2022-09-07T04:54:27.043Z,84.18
2022-09-07T04:54:58.425Z,84.50
2022-09-07T04:55:29.804Z,84.57
2022-09-07T04:56:01.586Z,84.93
2022-09-07T04:56:33.226Z,84.85
2022-09-07T04:57:04.733Z,84.60
2022-09-07T04:57:36.129Z,84.73
2022-09-07T04:58:07.485Z,84.99
2022-09-07T04:58:38.838Z,84.56
2022-09-07T04:59:10.343Z,84.71
2022-09-07T04:59:41.743Z,85.21
2022-09-07T05:00:13.492Z,84.70
2022-09-07T05:00:44.913Z,85.20
2022-09-07T05:01:19.455Z,84.87
2022-09-07T05:01:51.048Z,84.57
2022-09-07T05:02:22.475Z,85.06
2022-09-07T05:02:54.043Z,84.50
2022-09-07T05:03:25.377Z,84.91
2022-09-07T05:03:59.619Z,85.08
2022-09-07T05:04:49.425Z,85.33
2022-09-07T05:05:20.807Z,85.15
2022-09-07T05:06:11.051Z,85.11
2022-09-07T05:06:42.624Z,85.00
2022-09-07T05:07:14.067Z,85.22
2022-09-07T05:07:45.437Z,85.14
2022-09-07T05:08:16.772Z,85.00
2022-09-07T05:08:51.399Z,85.04
2022-09-07T05:10:11.764Z,84.95
2022-09-07T05:10:51.490Z,85.16
2022-09-07T05:11:43.004Z,85.22
2022-09-07T05:12:32.836Z,85.05
2022-09-07T05:13:04.183Z,85.33
2022-09-07T05:13:35.582Z,85.46
2022-09-07T05:14:25.685Z,85.13
2022-09-07T05:14:57.309Z,85.28
2022-09-07T05:15:30.396Z,85.38
2022-09-07T05:16:15.279Z,85.35
2022-09-07T05:17:05.107Z,85.69
2022-09-07T05:17:37.055Z,85.47
2022-09-07T05:18:08.955Z,85.54
2022-09-07T05:18:40.586Z,85.40
2022-09-07T05:19:13.164Z,85.59
2022-09-07T05:19:44.774Z,85.48
2022-09-07T05:20:20.060Z,85.55
2022-09-07T05:20:51.862Z,85.18
2022-09-07T05:21:25.998Z,85.27
2022-09-07T05:21:57.603Z,85.18
2022-09-07T05:22:29.081Z,85.40
2022-09-07T05:23:00.482Z,84.56
2022-09-07T05:23:31.844Z,84.84
2022-09-07T05:24:53.215Z,84.82
2022-09-07T05:25:24.915Z,84.81
2022-09-07T05:25:56.260Z,84.71
2022-09-07T05:26:30.025Z,84.99
2022-09-07T05:27:02.934Z,84.69
2022-09-07T05:27:34.320Z,84.92
2022-09-07T05:28:05.682Z,84.83
2022-09-07T05:31:23.668Z,85.56
2022-09-07T05:31:55.075Z,85.13
2022-09-07T05:32:26.395Z,85.02
2022-09-07T05:33:01.250Z,84.64
2022-09-07T05:34:59.468Z,84.40
2022-09-07T05:35:31.304Z,85.16
2022-09-07T05:36:22.629Z,83.96
2022-09-07T05:36:53.947Z,84.50
2022-09-07T05:37:25.271Z,84.69
2022-09-07T05:37:56.712Z,84.64
2022-09-07T05:38:29.207Z,84.88
2022-09-07T05:39:00.712Z,85.15
2022-09-07T05:39:32.223Z,85.25
2022-09-07T05:40:04.893Z,85.08
2022-09-07T05:40:40.517Z,85.12
2022-09-07T05:41:12.241Z,85.03
2022-09-07T05:41:43.576Z,85.09
2022-09-07T05:42:15.053Z,84.91
2022-09-07T05:42:46.620Z,84.90
2022-09-07T05:43:18.177Z,84.77
2022-09-07T05:45:18.808Z,84.65
2022-09-07T05:45:50.208Z,85.03
2022-09-07T05:46:22.255Z,85.10
2022-09-07T05:46:53.614Z,85.06
2022-09-07T05:47:24.998Z,84.98
2022-09-07T05:47:56.443Z,85.11
2022-09-07T05:48:27.768Z,85.14
2022-09-07T05:49:00.579Z,84.62
2022-09-07T05:49:32.368Z,84.65
2022-09-07T05:50:06.129Z,84.98
2022-09-07T05:50:37.493Z,84.51
2022-09-07T05:51:10.235Z,84.81
2022-09-07T05:51:41.590Z,84.64
2022-09-07T05:52:31.296Z,85.13
2022-09-07T05:53:03.116Z,84.77
2022-09-07T05:53:36.377Z,84.54
2022-09-07T05:54:07.734Z,84.86
2022-09-07T05:55:07.717Z,84.63
2022-09-07T05:55:44.624Z,84.63
2022-09-07T05:56:16.243Z,84.75
2022-09-07T05:56:47.619Z,84.53
2022-09-07T05:57:19.169Z,84.36
2022-09-07T05:58:39.572Z,84.59
2022-09-07T05:59:11.038Z,84.84
2022-09-07T05:59:42.367Z,84.90
2022-09-07T06:00:14.355Z,85.11
2022-09-07T06:00:45.917Z,85.44
2022-09-07T06:01:35.962Z,85.50
2022-09-07T06:02:07.639Z,85.36
2022-09-07T06:02:39.896Z,85.12
2022-09-07T06:03:11.793Z,85.51
2022-09-07T06:03:44.423Z,85.39
2022-09-07T06:04:15.883Z,85.27
2022-09-07T06:04:47.686Z,85.69
2022-09-07T06:05:37.650Z,85.55
2022-09-07T06:06:18.352Z,85.48
2022-09-07T06:07:17.609Z,85.62
2022-09-07T06:07:41.332Z,85.40
2022-09-07T06:08:13.242Z,85.27
2022-09-07T06:08:47.202Z,85.99
2022-09-07T06:09:18.539Z,85.47
2022-09-07T06:11:16.680Z,85.90
2022-09-07T06:11:48.028Z,86.08
2022-09-07T06:12:19.394Z,85.85
2022-09-07T06:12:50.807Z,86.18
2022-09-07T06:13:22.461Z,85.70
2022-09-07T06:14:12.495Z,86.03
2022-09-07T06:14:43.897Z,86.10
2022-09-07T06:15:16.086Z,85.89
2022-09-07T06:15:47.609Z,86.31
2022-09-07T06:16:20.091Z,86.34
2022-09-07T06:16:51.657Z,85.96
2022-09-07T06:17:23.040Z,86.10
2022-09-07T06:17:54.440Z,86.38
2022-09-07T06:18:29.826Z,86.13
2022-09-07T06:19:05.950Z,86.11
2022-09-07T06:20:44.099Z,86.13
2022-09-07T06:21:19.864Z,86.17
2022-09-07T06:21:51.418Z,86.38
2022-09-07T06:22:23.527Z,86.62
2022-09-07T06:22:56.417Z,86.26
2022-09-07T06:23:27.839Z,86.24
2022-09-07T06:24:48.478Z,86.28
2022-09-07T06:25:20.012Z,86.25
2022-09-07T06:25:51.376Z,86.47
2022-09-07T06:26:22.701Z,86.42
2022-09-07T06:26:54.059Z,86.40
2022-09-07T06:27:25.403Z,86.06
2022-09-07T06:27:56.740Z,86.11
2022-09-07T06:28:32.767Z,86.60
2022-09-07T06:29:23.441Z,86.44
2022-09-07T06:29:55.453Z,86.50
2022-09-07T06:30:27.092Z,86.63
2022-09-07T06:32:44.055Z,86.61
2022-09-07T06:33:19.574Z,86.21
2022-09-07T06:34:12.886Z,86.71
2022-09-07T06:34:44.198Z,86.76
2022-09-07T06:35:15.816Z,86.63
2022-09-07T06:35:58.639Z,86.44
2022-09-07T06:36:51.652Z,86.90
2022-09-07T06:37:22.974Z,86.79
2022-09-07T06:37:54.289Z,86.97
2022-09-07T06:38:31.799Z,86.63
2022-09-07T06:39:22.228Z,86.57
2022-09-07T06:39:53.619Z,86.46
2022-09-07T06:40:43.416Z,86.72
2022-09-07T06:42:15.712Z,86.43
2022-09-07T06:42:47.036Z,86.52
2022-09-07T06:43:18.827Z,86.53
2022-09-07T06:43:50.553Z,86.80
2022-09-07T06:44:21.863Z,86.34
2022-09-07T06:44:53.647Z,86.69
2022-09-07T06:45:25.264Z,86.99
2022-09-07T06:45:56.818Z,86.69
2022-09-07T06:47:38.310Z,87.01
2022-09-07T06:48:09.626Z,87.26
2022-09-07T06:48:44.272Z,87.35
2022-09-07T06:49:15.935Z,87.02
2022-09-07T06:49:47.297Z,86.99
2022-09-07T06:50:18.624Z,86.89
2022-09-07T06:51:19.473Z,87.17
2022-09-07T06:53:34.428Z,87.45
2022-09-07T06:55:29.822Z,87.47
2022-09-07T06:56:53.525Z,87.13
2022-09-07T06:57:24.923Z,86.80
2022-09-07T06:57:56.239Z,86.99
2022-09-07T06:58:28.800Z,87.19
2022-09-07T06:59:00.377Z,86.95
2022-09-07T06:59:31.691Z,87.53
2022-09-07T07:00:03.823Z,87.22
2022-09-07T07:00:35.188Z,87.41
2022-09-07T07:01:26.821Z,87.40
2022-09-07T07:01:58.157Z,87.35
2022-09-07T07:02:29.483Z,86.76
2022-09-07T07:03:00.912Z,86.95
2022-09-07T07:03:32.325Z,86.86
2022-09-07T07:04:03.695Z,87.14
2022-09-07T07:04:40.347Z,87.23
2022-09-07T07:05:12.324Z,86.69
2022-09-07T07:05:53.792Z,87.24
2022-09-07T07:06:33.708Z,87.13
2022-09-07T07:07:23.686Z,87.25
2022-09-07T07:08:13.464Z,87.17
2022-09-07T07:08:44.876Z,87.09
2022-09-07T07:09:16.196Z,87.29
2022-09-07T07:09:49.892Z,87.47
2022-09-07T07:10:24.765Z,87.24
2022-09-07T07:11:00.810Z,87.17
2022-09-07T07:11:32.279Z,87.79
2022-09-07T07:12:03.719Z,88.32
2022-09-07T07:13:08.180Z,88.40
2022-09-07T07:13:41.327Z,88.29
2022-09-07T07:14:15.927Z,88.30
2022-09-07T07:14:47.240Z,88.11
2022-09-07T07:15:19.159Z,87.77
2022-09-07T07:15:53.447Z,87.72
2022-09-07T07:16:25.071Z,87.60
2022-09-07T07:16:56.700Z,87.37
2022-09-07T07:17:28.016Z,88.27
2022-09-07T07:18:09.650Z,87.70
2022-09-07T07:18:55.114Z,88.28
2022-09-07T07:19:26.419Z,88.19
2022-09-07T07:20:16.919Z,87.97
2022-09-07T07:20:48.308Z,88.55
2022-09-07T07:21:19.639Z,88.30
2022-09-07T07:22:46.430Z,88.34
2022-09-07T07:23:18.338Z,88.38
2022-09-07T07:23:51.235Z,87.86
2022-09-07T07:24:22.866Z,88.12
2022-09-07T07:24:54.243Z,88.75
2022-09-07T07:25:25.575Z,87.81
2022-09-07T07:26:16.600Z,87.68
2022-09-07T07:26:48.649Z,87.51
2022-09-07T07:27:21.464Z,87.63
2022-09-07T07:27:52.793Z,88.22
2022-09-07T07:29:18.928Z,87.97
2022-09-07T07:29:50.489Z,87.42
2022-09-07T07:30:22.230Z,87.65
2022-09-07T07:30:58.119Z,87.29
2022-09-07T07:31:30.167Z,87.85
2022-09-07T07:32:01.860Z,87.51
2022-09-07T07:32:33.166Z,87.50
2022-09-07T07:33:07.120Z,87.45
2022-09-07T07:33:39.380Z,88.06
2022-09-07T07:35:01.377Z,88.11
2022-09-07T07:35:32.647Z,87.74
2022-09-07T07:36:30.805Z,87.82
2022-09-07T07:37:02.084Z,87.43
2022-09-07T07:37:33.498Z,87.54
2022-09-07T07:40:43.285Z,87.72
2022-09-07T07:42:08.581Z,87.52
2022-09-07T07:42:41.375Z,87.27
2022-09-07T07:43:12.713Z,87.20
2022-09-07T07:43:44.548Z,87.20
2022-09-07T07:44:15.825Z,87.33
2022-09-07T07:44:47.109Z,87.09
2022-09-07T07:46:08.058Z,87.74
2022-09-07T07:46:58.005Z,86.86
2022-09-07T07:47:29.356Z,86.98
2022-09-07T07:48:00.692Z,86.87
2022-09-07T07:48:32.622Z,86.66
2022-09-07T07:49:03.908Z,87.01
2022-09-07T07:49:35.256Z,86.74
2022-09-07T07:51:09.790Z,86.81
2022-09-07T07:53:41.262Z,86.49
2022-09-07T07:53:44.151Z,86.29
2022-09-07T07:54:15.519Z,85.81
2022-09-07T07:54:46.923Z,85.64
2022-09-07T07:56:10.512Z,85.83
2022-09-07T07:56:41.863Z,86.05
2022-09-07T07:57:13.246Z,85.83
2022-09-07T07:57:44.576Z,86.21
2022-09-07T07:58:16.164Z,86.15
2022-09-07T07:58:48.298Z,86.54
2022-09-07T07:59:19.585Z,85.58
2022-09-07T08:00:09.652Z,86.26
2022-09-07T08:00:56.983Z,85.58
2022-09-07T08:01:28.485Z,86.21
2022-09-07T08:02:04.387Z,86.38
2022-09-07T08:02:36.334Z,85.97
2022-09-07T08:03:26.587Z,85.49
2022-09-07T08:03:57.927Z,85.92
2022-09-07T08:04:29.216Z,85.60
2022-09-07T08:05:01.255Z,85.98
2022-09-07T08:05:35.691Z,86.14
2022-09-07T08:06:08.835Z,85.84
2022-09-07T08:06:42.641Z,86.23
2022-09-07T08:07:14.191Z,85.75
2022-09-07T08:07:45.462Z,86.08
2022-09-07T08:08:16.837Z,86.26
2022-09-07T08:08:48.806Z,86.47
2022-09-07T08:09:20.128Z,86.07
2022-09-07T08:09:51.624Z,86.67
2022-09-07T08:10:29.500Z,85.46
2022-09-07T08:11:13.474Z,85.64
2022-09-07T08:11:44.775Z,85.71
2022-09-07T08:12:54.658Z,85.47
2022-09-07T08:13:26.052Z,85.58
2022-09-07T08:14:00.058Z,85.61
2022-09-07T08:14:31.551Z,84.93
2022-09-07T08:15:02.860Z,85.41
2022-09-07T08:15:45.183Z,84.88
2022-09-07T08:16:36.192Z,85.06
2022-09-07T08:17:12.437Z,86.19
2022-09-07T08:17:45.522Z,85.90
2022-09-07T08:18:17.659Z,86.10
2022-09-07T08:18:49.180Z,86.06
2022-09-07T08:19:20.738Z,85.35
2022-09-07T08:19:52.219Z,85.90
2022-09-07T08:20:23.738Z,86.35
2022-09-07T08:20:59.969Z,86.66
2022-09-07T08:21:31.307Z,85.98
2022-09-07T08:22:21.043Z,85.65
2022-09-07T08:22:52.387Z,85.51
2022-09-07T08:23:23.743Z,85.62
2022-09-07T08:23:55.472Z,85.57
2022-09-07T08:24:26.815Z,84.67
2022-09-07T08:24:58.144Z,84.60
2022-09-07T08:25:29.427Z,84.96
2022-09-07T08:26:01.320Z,85.73
2022-09-07T08:26:32.679Z,85.20
2022-09-07T08:27:04.649Z,85.65
2022-09-07T08:27:36.048Z,85.42
2022-09-07T08:28:07.378Z,85.22
2022-09-07T08:28:41.165Z,86.24
2022-09-07T08:29:12.458Z,86.29
2022-09-07T08:29:43.736Z,85.12
2022-09-07T08:31:06.080Z,84.39
2022-09-07T08:31:38.077Z,84.33
2022-09-07T08:32:58.103Z,84.20
2022-09-07T08:33:29.508Z,84.87
2022-09-07T08:34:01.801Z,83.80
2022-09-07T08:34:35.451Z,83.81
2022-09-07T08:35:07.981Z,84.25
2022-09-07T08:35:39.514Z,83.40
2022-09-07T08:36:13.525Z,83.47
2022-09-07T08:36:44.876Z,83.37
2022-09-07T08:37:16.127Z,84.69
2022-09-07T08:37:47.418Z,83.70
2022-09-07T08:38:21.031Z,83.36
2022-09-07T08:38:53.531Z,83.45
2022-09-07T08:39:24.845Z,83.45